sensor_id;sensor_type;location;lat;lon;timestamp;pressure;altitude;pressure_sealevel;temperature;humidity
48404;BME280;34202;52.536;6.042;2023-05-12T00:02:23;101806.06;;;10.91;100.00
48404;BME280;34202;52.536;6.042;2023-05-12T00:07:23;101803.27;;;10.90;100.00
48404;BME280;34202;52.536;6.042;2023-05-12T00:12:24;101801.69;;;10.90;100.00
48404;BME280;34202;52.536;6.042;2023-05-12T00:17:25;101796.30;;;10.90;100.00
48404;BME280;34202;52.536;6.042;2023-05-12T00:22:26;101794.17;;;10.89;100.00
48404;BME280;34202;52.536;6.042;2023-05-12T00:27:27;101791.75;;;10.90;100.00
48404;BME280;34202;52.536;6.042;2023-05-12T00:32:29;101790.39;;;10.91;100.00
48404;BME280;34202;52.536;6.042;2023-05-12T00:37:30;101789.03;;;10.93;100.00
48404;BME280;34202;52.536;6.042;2023-05-12T00:42:33;101787.01;;;10.96;100.00
48404;BME280;34202;52.536;6.042;2023-05-12T00:47:33;101781.48;;;10.99;100.00
48404;BME280;34202;52.536;6.042;2023-05-12T00:52:35;101781.84;;;10.99;100.00
48404;BME280;34202;52.536;6.042;2023-05-12T00:57:35;101779.05;;;10.99;100.00
48404;BME280;34202;52.536;6.042;2023-05-12T01:02:36;101776.80;;;10.99;100.00
48404;BME280;34202;52.536;6.042;2023-05-12T01:07:37;101779.09;;;11.01;100.00
48404;BME280;34202;52.536;6.042;2023-05-12T01:12:38;101773.15;;;11.00;100.00
48404;BME280;34202;52.536;6.042;2023-05-12T01:17:41;101776.33;;;11.01;100.00
48404;BME280;34202;52.536;6.042;2023-05-12T01:22:45;101767.62;;;11.02;100.00
48404;BME280;34202;52.536;6.042;2023-05-12T01:27:47;101766.41;;;11.02;100.00
48404;BME280;34202;52.536;6.042;2023-05-12T01:32:49;101769.02;;;11.02;100.00
48404;BME280;34202;52.536;6.042;2023-05-12T01:37:50;101768.88;;;11.03;100.00
48404;BME280;34202;52.536;6.042;2023-05-12T01:42:51;101769.73;;;11.03;100.00
48404;BME280;34202;52.536;6.042;2023-05-12T01:47:52;101769.02;;;11.02;100.00
48404;BME280;34202;52.536;6.042;2023-05-12T01:52:52;101777.05;;;11.03;100.00
48404;BME280;34202;52.536;6.042;2023-05-12T01:57:52;101779.67;;;11.03;100.00
48404;BME280;34202;52.536;6.042;2023-05-12T02:02:53;101779.49;;;11.04;100.00
48404;BME280;34202;52.536;6.042;2023-05-12T02:07:53;101784.04;;;11.05;100.00
48404;BME280;34202;52.536;6.042;2023-05-12T02:12:53;101779.88;;;11.06;100.00
48404;BME280;34202;52.536;6.042;2023-05-12T02:17:54;101788.27;;;11.07;100.00
48404;BME280;34202;52.536;6.042;2023-05-12T02:22:54;101786.57;;;11.09;100.00
48404;BME280;34202;52.536;6.042;2023-05-12T02:27:55;101783.82;;;11.11;100.00
48404;BME280;34202;52.536;6.042;2023-05-12T02:32:55;101786.63;;;11.12;100.00
48404;BME280;34202;52.536;6.042;2023-05-12T02:37:56;101785.45;;;11.14;100.00
48404;BME280;34202;52.536;6.042;2023-05-12T02:42:57;101787.21;;;11.16;100.00
48404;BME280;34202;52.536;6.042;2023-05-12T02:47:57;101789.02;;;11.18;100.00
48404;BME280;34202;52.536;6.042;2023-05-12T02:52:58;101790.95;;;11.19;100.00
48404;BME280;34202;52.536;6.042;2023-05-12T02:57:58;101784.02;;;11.21;100.00
48404;BME280;34202;52.536;6.042;2023-05-12T03:02:58;101784.57;;;11.23;100.00
48404;BME280;34202;52.536;6.042;2023-05-12T03:07:59;101777.27;;;11.25;100.00
48404;BME280;34202;52.536;6.042;2023-05-12T03:12:59;101762.83;;;11.26;100.00
48404;BME280;34202;52.536;6.042;2023-05-12T03:18:00;101759.73;;;11.28;100.00
48404;BME280;34202;52.536;6.042;2023-05-12T03:23:00;101768.67;;;11.30;100.00
48404;BME280;34202;52.536;6.042;2023-05-12T03:28:01;101777.08;;;11.32;100.00
48404;BME280;34202;52.536;6.042;2023-05-12T03:33:02;101783.55;;;11.34;100.00
48404;BME280;34202;52.536;6.042;2023-05-12T03:38:03;101776.80;;;11.35;100.00
48404;BME280;34202;52.536;6.042;2023-05-12T03:43:04;101778.77;;;11.38;100.00
48404;BME280;34202;52.536;6.042;2023-05-12T03:48:04;101774.64;;;11.42;100.00
48404;BME280;34202;52.536;6.042;2023-05-12T03:53:06;101772.80;;;11.45;100.00
48404;BME280;34202;52.536;6.042;2023-05-12T03:58:06;101773.52;;;11.48;100.00
48404;BME280;34202;52.536;6.042;2023-05-12T04:03:07;101770.43;;;11.50;100.00
48404;BME280;34202;52.536;6.042;2023-05-12T04:08:08;101769.42;;;11.52;100.00
48404;BME280;34202;52.536;6.042;2023-05-12T04:13:08;101772.78;;;11.55;100.00
48404;BME280;34202;52.536;6.042;2023-05-12T04:18:08;101772.65;;;11.57;100.00
48404;BME280;34202;52.536;6.042;2023-05-12T04:23:09;101772.71;;;11.60;100.00
48404;BME280;34202;52.536;6.042;2023-05-12T04:28:09;101774.14;;;11.64;100.00
48404;BME280;34202;52.536;6.042;2023-05-12T04:33:10;101786.41;;;11.67;100.00
48404;BME280;34202;52.536;6.042;2023-05-12T04:38:10;101788.90;;;11.70;100.00
48404;BME280;34202;52.536;6.042;2023-05-12T04:43:11;101796.45;;;11.73;100.00
48404;BME280;34202;52.536;6.042;2023-05-12T04:48:11;101799.45;;;11.75;100.00
48404;BME280;34202;52.536;6.042;2023-05-12T04:53:11;101803.16;;;11.77;100.00
48404;BME280;34202;52.536;6.042;2023-05-12T04:58:12;101807.04;;;11.79;100.00
48404;BME280;34202;52.536;6.042;2023-05-12T05:03:12;101815.63;;;11.82;100.00
48404;BME280;34202;52.536;6.042;2023-05-12T05:08:13;101819.52;;;11.86;100.00
48404;BME280;34202;52.536;6.042;2023-05-12T05:13:14;101823.98;;;11.91;100.00
48404;BME280;34202;52.536;6.042;2023-05-12T05:18:15;101825.84;;;11.96;100.00
48404;BME280;34202;52.536;6.042;2023-05-12T05:23:16;101826.29;;;12.02;100.00
48404;BME280;34202;52.536;6.042;2023-05-12T05:28:16;101831.44;;;12.08;100.00
48404;BME280;34202;52.536;6.042;2023-05-12T05:33:16;101832.42;;;12.15;100.00
48404;BME280;34202;52.536;6.042;2023-05-12T05:38:17;101834.45;;;12.22;100.00
48404;BME280;34202;52.536;6.042;2023-05-12T05:43:17;101837.36;;;12.28;100.00
48404;BME280;34202;52.536;6.042;2023-05-12T05:48:18;101841.27;;;12.34;100.00
48404;BME280;34202;52.536;6.042;2023-05-12T05:53:19;101852.34;;;12.39;100.00
48404;BME280;34202;52.536;6.042;2023-05-12T05:58:20;101860.98;;;12.43;100.00
48404;BME280;34202;52.536;6.042;2023-05-12T06:03:20;101866.11;;;12.49;100.00
48404;BME280;34202;52.536;6.042;2023-05-12T06:08:22;101871.11;;;12.56;100.00
48404;BME280;34202;52.536;6.042;2023-05-12T06:13:22;101872.73;;;12.60;100.00
48404;BME280;34202;52.536;6.042;2023-05-12T06:18:22;101888.89;;;12.65;100.00
48404;BME280;34202;52.536;6.042;2023-05-12T06:23:23;101887.23;;;12.72;100.00
48404;BME280;34202;52.536;6.042;2023-05-12T06:28:23;101894.36;;;12.81;100.00
48404;BME280;34202;52.536;6.042;2023-05-12T06:33:23;101894.11;;;12.88;100.00
48404;BME280;34202;52.536;6.042;2023-05-12T06:38:24;101896.31;;;12.96;100.00
48404;BME280;34202;52.536;6.042;2023-05-12T06:43:24;101898.67;;;13.03;100.00
48404;BME280;34202;52.536;6.042;2023-05-12T06:48:26;101896.35;;;13.12;100.00
48404;BME280;34202;52.536;6.042;2023-05-12T06:53:26;101899.09;;;13.21;100.00
48404;BME280;34202;52.536;6.042;2023-05-12T06:58:27;101901.02;;;13.33;100.00
48404;BME280;34202;52.536;6.042;2023-05-12T07:03:30;101905.36;;;13.45;100.00
48404;BME280;34202;52.536;6.042;2023-05-12T07:08:31;101909.53;;;13.58;100.00
48404;BME280;34202;52.536;6.042;2023-05-12T07:13:32;101911.06;;;13.69;100.00
48404;BME280;34202;52.536;6.042;2023-05-12T07:18:32;101917.09;;;13.78;100.00
48404;BME280;34202;52.536;6.042;2023-05-12T07:23:33;101919.64;;;13.87;100.00
48404;BME280;34202;52.536;6.042;2023-05-12T07:28:34;101922.89;;;13.96;100.00
48404;BME280;34202;52.536;6.042;2023-05-12T07:33:35;101915.65;;;14.08;100.00
48404;BME280;34202;52.536;6.042;2023-05-12T07:38:36;101918.01;;;14.17;100.00
48404;BME280;34202;52.536;6.042;2023-05-12T07:43:36;101927.38;;;14.27;100.00
48404;BME280;34202;52.536;6.042;2023-05-12T07:48:36;101932.02;;;14.36;100.00
48404;BME280;34202;52.536;6.042;2023-05-12T07:53:39;101934.90;;;14.46;100.00
48404;BME280;34202;52.536;6.042;2023-05-12T07:58:39;101937.28;;;14.57;100.00
48404;BME280;34202;52.536;6.042;2023-05-12T08:03:40;101943.15;;;14.68;100.00
48404;BME280;34202;52.536;6.042;2023-05-12T08:08:40;101951.27;;;14.78;100.00
48404;BME280;34202;52.536;6.042;2023-05-12T08:13:40;101953.09;;;14.85;100.00
48404;BME280;34202;52.536;6.042;2023-05-12T08:18:41;101959.98;;;14.93;100.00
48404;BME280;34202;52.536;6.042;2023-05-12T08:23:41;101960.00;;;14.98;100.00
48404;BME280;34202;52.536;6.042;2023-05-12T08:28:41;101969.17;;;15.07;100.00
48404;BME280;34202;52.536;6.042;2023-05-12T08:33:42;101969.94;;;15.18;100.00
48404;BME280;34202;52.536;6.042;2023-05-12T08:38:42;101971.75;;;15.29;100.00
48404;BME280;34202;52.536;6.042;2023-05-12T08:43:50;101976.54;;;15.40;100.00
48404;BME280;34202;52.536;6.042;2023-05-12T08:48:52;101976.04;;;15.45;100.00
48404;BME280;34202;52.536;6.042;2023-05-12T08:53:54;101974.51;;;15.53;100.00
48404;BME280;34202;52.536;6.042;2023-05-12T08:58:55;101983.66;;;15.61;100.00
48404;BME280;34202;52.536;6.042;2023-05-12T09:03:56;101988.27;;;15.72;100.00
48404;BME280;34202;52.536;6.042;2023-05-12T09:08:56;101993.41;;;15.80;100.00
48404;BME280;34202;52.536;6.042;2023-05-12T09:14:00;101990.98;;;15.88;100.00
48404;BME280;34202;52.536;6.042;2023-05-12T09:19:02;101993.13;;;16.05;100.00
48404;BME280;34202;52.536;6.042;2023-05-12T09:24:05;101995.80;;;16.20;100.00
48404;BME280;34202;52.536;6.042;2023-05-12T09:29:06;102001.61;;;16.30;100.00
48404;BME280;34202;52.536;6.042;2023-05-12T09:34:08;102003.74;;;16.42;100.00
48404;BME280;34202;52.536;6.042;2023-05-12T09:39:09;101998.12;;;16.73;100.00
48404;BME280;34202;52.536;6.042;2023-05-12T09:44:13;102001.27;;;17.13;100.00
48404;BME280;34202;52.536;6.042;2023-05-12T09:49:19;102002.41;;;17.47;100.00
48404;BME280;34202;52.536;6.042;2023-05-12T09:54:28;101998.45;;;17.69;100.00
48404;BME280;34202;52.536;6.042;2023-05-12T09:59:33;101997.14;;;17.90;100.00
48404;BME280;34202;52.536;6.042;2023-05-12T10:04:46;101997.55;;;18.11;100.00
48404;BME280;34202;52.536;6.042;2023-05-12T10:09:48;102003.80;;;18.28;100.00
48404;BME280;34202;52.536;6.042;2023-05-12T10:14:50;102009.83;;;18.47;100.00
48404;BME280;34202;52.536;6.042;2023-05-12T10:19:51;102011.50;;;18.59;100.00
48404;BME280;34202;52.536;6.042;2023-05-12T10:24:53;102012.32;;;18.66;100.00
48404;BME280;34202;52.536;6.042;2023-05-12T10:29:54;102009.08;;;18.72;100.00
48404;BME280;34202;52.536;6.042;2023-05-12T10:35:06;102009.05;;;18.82;100.00
48404;BME280;34202;52.536;6.042;2023-05-12T10:40:07;102009.38;;;19.01;100.00
48404;BME280;34202;52.536;6.042;2023-05-12T10:45:18;102009.17;;;19.22;100.00
48404;BME280;34202;52.536;6.042;2023-05-12T10:50:26;102003.50;;;19.41;100.00
48404;BME280;34202;52.536;6.042;2023-05-12T10:55:34;102001.16;;;19.59;100.00
48404;BME280;34202;52.536;6.042;2023-05-12T11:00:48;102012.45;;;19.76;99.08
48404;BME280;34202;52.536;6.042;2023-05-12T11:06:04;102014.52;;;19.94;98.27
48404;BME280;34202;52.536;6.042;2023-05-12T11:11:05;102018.27;;;20.16;97.56
48404;BME280;34202;52.536;6.042;2023-05-12T11:16:05;102024.34;;;20.35;96.55
48404;BME280;34202;52.536;6.042;2023-05-12T11:21:10;102027.13;;;20.51;94.42
48404;BME280;34202;52.536;6.042;2023-05-12T11:26:16;102026.29;;;20.48;92.30
48404;BME280;34202;52.536;6.042;2023-05-12T11:31:18;102027.05;;;20.55;92.14
48404;BME280;34202;52.536;6.042;2023-05-12T11:36:19;102027.81;;;20.75;91.37
48404;BME280;34202;52.536;6.042;2023-05-12T11:41:24;102027.11;;;20.85;88.90
48404;BME280;34202;52.536;6.042;2023-05-12T11:46:28;102027.21;;;20.89;88.01
48404;BME280;34202;52.536;6.042;2023-05-12T11:51:29;102026.91;;;21.06;87.40
48404;BME280;34202;52.536;6.042;2023-05-12T11:56:31;102027.31;;;21.22;86.35
48404;BME280;34202;52.536;6.042;2023-05-12T12:01:31;102022.78;;;21.28;86.14
48404;BME280;34202;52.536;6.042;2023-05-12T12:06:44;102021.62;;;21.44;84.58
48404;BME280;34202;52.536;6.042;2023-05-12T12:11:45;102017.80;;;21.50;84.14
48404;BME280;34202;52.536;6.042;2023-05-12T12:16:45;102018.52;;;21.66;84.21
48404;BME280;34202;52.536;6.042;2023-05-12T12:21:45;102016.48;;;21.78;82.31
48404;BME280;34202;52.536;6.042;2023-05-12T12:26:46;102016.13;;;21.95;82.56
48404;BME280;34202;52.536;6.042;2023-05-12T12:31:46;102016.89;;;22.16;81.23
48404;BME280;34202;52.536;6.042;2023-05-12T12:36:47;102013.29;;;22.18;79.41
48404;BME280;34202;52.536;6.042;2023-05-12T12:41:47;102013.02;;;22.23;77.99
48404;BME280;34202;52.536;6.042;2023-05-12T12:46:48;102014.06;;;22.25;76.33
48404;BME280;34202;52.536;6.042;2023-05-12T12:51:48;102008.83;;;22.20;75.91
48404;BME280;34202;52.536;6.042;2023-05-12T12:56:49;102013.03;;;22.31;76.19
48404;BME280;34202;52.536;6.042;2023-05-12T13:01:50;102012.91;;;22.36;75.82
48404;BME280;34202;52.536;6.042;2023-05-12T13:06:50;102012.80;;;22.48;75.34
48404;BME280;34202;52.536;6.042;2023-05-12T13:11:51;102005.52;;;22.56;73.89
48404;BME280;34202;52.536;6.042;2023-05-12T13:16:52;102003.66;;;22.59;73.51
48404;BME280;34202;52.536;6.042;2023-05-12T13:21:52;102007.34;;;22.68;72.72
48404;BME280;34202;52.536;6.042;2023-05-12T13:26:52;102012.22;;;22.78;70.92
48404;BME280;34202;52.536;6.042;2023-05-12T13:31:53;102008.36;;;22.84;69.39
48404;BME280;34202;52.536;6.042;2023-05-12T13:36:53;102004.41;;;22.92;68.68
48404;BME280;34202;52.536;6.042;2023-05-12T13:41:54;102003.27;;;23.02;68.18
48404;BME280;34202;52.536;6.042;2023-05-12T13:46:54;102000.17;;;23.06;67.63
48404;BME280;34202;52.536;6.042;2023-05-12T13:51:54;101999.36;;;23.16;67.30
48404;BME280;34202;52.536;6.042;2023-05-12T13:56:55;101993.36;;;23.28;66.33
48404;BME280;34202;52.536;6.042;2023-05-12T14:01:56;101993.61;;;23.18;63.41
48404;BME280;34202;52.536;6.042;2023-05-12T14:06:56;101989.10;;;23.21;64.02
48404;BME280;34202;52.536;6.042;2023-05-12T14:11:57;101986.52;;;23.30;63.03
48404;BME280;34202;52.536;6.042;2023-05-12T14:16:58;101981.21;;;23.36;63.16
48404;BME280;34202;52.536;6.042;2023-05-12T14:21:58;101980.23;;;23.33;61.67
48404;BME280;34202;52.536;6.042;2023-05-12T14:26:58;101979.36;;;23.32;62.18
48404;BME280;34202;52.536;6.042;2023-05-12T14:31:59;101984.23;;;23.30;61.09
48404;BME280;34202;52.536;6.042;2023-05-12T14:36:59;101988.98;;;23.12;61.02
48404;BME280;34202;52.536;6.042;2023-05-12T14:41:59;101988.38;;;22.94;61.33
48404;BME280;34202;52.536;6.042;2023-05-12T14:47:00;101988.96;;;22.79;61.52
48404;BME280;34202;52.536;6.042;2023-05-12T14:52:01;101989.59;;;22.61;61.40
48404;BME280;34202;52.536;6.042;2023-05-12T14:57:02;101992.34;;;22.50;61.07
48404;BME280;34202;52.536;6.042;2023-05-12T15:02:03;101997.59;;;22.46;60.98
48404;BME280;34202;52.536;6.042;2023-05-12T15:07:03;101999.42;;;22.43;61.09
48404;BME280;34202;52.536;6.042;2023-05-12T15:12:04;102000.41;;;22.40;60.44
48404;BME280;34202;52.536;6.042;2023-05-12T15:17:05;102000.73;;;22.34;60.79
48404;BME280;34202;52.536;6.042;2023-05-12T15:22:05;101997.96;;;22.38;61.13
48404;BME280;34202;52.536;6.042;2023-05-12T15:27:06;101996.70;;;22.46;58.89
48404;BME280;34202;52.536;6.042;2023-05-12T15:32:07;101995.08;;;22.47;57.94
48404;BME280;34202;52.536;6.042;2023-05-12T15:37:07;102000.23;;;22.54;58.45
48404;BME280;34202;52.536;6.042;2023-05-12T15:42:09;102008.86;;;22.56;58.16
48404;BME280;34202;52.536;6.042;2023-05-12T15:47:09;102014.26;;;22.61;58.01
48404;BME280;34202;52.536;6.042;2023-05-12T15:52:09;102021.01;;;22.53;56.19
48404;BME280;34202;52.536;6.042;2023-05-12T15:57:10;102024.67;;;22.41;55.35
48404;BME280;34202;52.536;6.042;2023-05-12T16:02:12;102024.76;;;22.29;55.73
48404;BME280;34202;52.536;6.042;2023-05-12T16:07:12;102023.88;;;22.13;55.39
48404;BME280;34202;52.536;6.042;2023-05-12T16:12:13;102022.91;;;21.93;55.50
48404;BME280;34202;52.536;6.042;2023-05-12T16:17:14;102020.56;;;21.79;55.99
48404;BME280;34202;52.536;6.042;2023-05-12T16:22:15;102020.16;;;21.64;56.28
48404;BME280;34202;52.536;6.042;2023-05-12T16:27:15;102023.23;;;21.52;56.82
48404;BME280;34202;52.536;6.042;2023-05-12T16:32:15;102021.58;;;21.36;57.28
48404;BME280;34202;52.536;6.042;2023-05-12T16:37:16;102026.27;;;21.22;58.14
48404;BME280;34202;52.536;6.042;2023-05-12T16:42:16;102022.73;;;21.13;58.22
48404;BME280;34202;52.536;6.042;2023-05-12T16:47:17;102018.77;;;21.07;58.21
48404;BME280;34202;52.536;6.042;2023-05-12T16:52:17;102017.11;;;21.00;58.01
48404;BME280;34202;52.536;6.042;2023-05-12T16:57:17;102019.68;;;20.95;57.75
48404;BME280;34202;52.536;6.042;2023-05-12T17:02:18;102022.96;;;20.91;58.00
48404;BME280;34202;52.536;6.042;2023-05-12T17:07:18;102021.73;;;20.90;58.33
48404;BME280;34202;52.536;6.042;2023-05-12T17:12:19;102026.67;;;20.90;58.59
48404;BME280;34202;52.536;6.042;2023-05-12T17:17:19;102030.58;;;20.90;58.88
48404;BME280;34202;52.536;6.042;2023-05-12T17:22:20;102037.80;;;20.91;59.68
48404;BME280;34202;52.536;6.042;2023-05-12T17:27:21;102038.60;;;20.95;60.14
48404;BME280;34202;52.536;6.042;2023-05-12T17:32:21;102042.48;;;20.97;61.01
48404;BME280;34202;52.536;6.042;2023-05-12T17:37:22;102042.30;;;20.97;61.72
48404;BME280;34202;52.536;6.042;2023-05-12T17:42:23;102046.77;;;20.95;61.34
48404;BME280;34202;52.536;6.042;2023-05-12T17:47:24;102052.85;;;20.91;60.28
48404;BME280;34202;52.536;6.042;2023-05-12T17:52:25;102051.98;;;20.89;58.93
48404;BME280;34202;52.536;6.042;2023-05-12T17:57:26;102057.71;;;20.85;57.61
48404;BME280;34202;52.536;6.042;2023-05-12T18:02:26;102061.52;;;20.80;57.47
48404;BME280;34202;52.536;6.042;2023-05-12T18:07:27;102066.08;;;20.72;56.90
48404;BME280;34202;52.536;6.042;2023-05-12T18:12:27;102069.58;;;20.63;56.67
48404;BME280;34202;52.536;6.042;2023-05-12T18:17:28;102076.06;;;20.52;56.58
48404;BME280;34202;52.536;6.042;2023-05-12T18:22:28;102076.62;;;20.39;56.83
48404;BME280;34202;52.536;6.042;2023-05-12T18:27:29;102084.10;;;20.24;57.08
48404;BME280;34202;52.536;6.042;2023-05-12T18:32:29;102091.21;;;20.07;57.31
48404;BME280;34202;52.536;6.042;2023-05-12T18:37:31;102089.67;;;19.88;57.76
48404;BME280;34202;52.536;6.042;2023-05-12T18:42:32;102102.24;;;19.70;57.93
48404;BME280;34202;52.536;6.042;2023-05-12T18:47:33;102099.91;;;19.55;58.25
48404;BME280;34202;52.536;6.042;2023-05-12T18:52:33;102109.57;;;19.42;58.38
48404;BME280;34202;52.536;6.042;2023-05-12T18:57:34;102112.37;;;19.27;58.85
48404;BME280;34202;52.536;6.042;2023-05-12T19:02:35;102116.97;;;19.06;59.35
48404;BME280;34202;52.536;6.042;2023-05-12T19:07:35;102125.41;;;18.85;60.18
48404;BME280;34202;52.536;6.042;2023-05-12T19:12:36;102131.35;;;18.65;60.94
48404;BME280;34202;52.536;6.042;2023-05-12T19:17:37;102137.60;;;18.49;62.12
48404;BME280;34202;52.536;6.042;2023-05-12T19:22:37;102139.80;;;18.33;62.79
48404;BME280;34202;52.536;6.042;2023-05-12T19:27:37;102145.87;;;18.18;63.87
48404;BME280;34202;52.536;6.042;2023-05-12T19:32:38;102155.42;;;18.02;64.72
48404;BME280;34202;52.536;6.042;2023-05-12T19:37:39;102161.11;;;17.91;65.51
48404;BME280;34202;52.536;6.042;2023-05-12T19:42:40;102160.75;;;17.84;66.09
48404;BME280;34202;52.536;6.042;2023-05-12T19:47:41;102171.32;;;17.78;66.41
48404;BME280;34202;52.536;6.042;2023-05-12T19:52:41;102173.62;;;17.70;66.61
48404;BME280;34202;52.536;6.042;2023-05-12T19:57:42;102179.61;;;17.63;66.60
48404;BME280;34202;52.536;6.042;2023-05-12T20:02:43;102188.42;;;17.55;66.74
48404;BME280;34202;52.536;6.042;2023-05-12T20:07:43;102193.73;;;17.42;67.03
48404;BME280;34202;52.536;6.042;2023-05-12T20:12:43;102196.88;;;17.29;67.56
48404;BME280;34202;52.536;6.042;2023-05-12T20:17:44;102201.63;;;17.12;68.01
48404;BME280;34202;52.536;6.042;2023-05-12T20:22:44;102206.34;;;16.98;68.36
48404;BME280;34202;52.536;6.042;2023-05-12T20:27:44;102208.79;;;16.87;68.59
48404;BME280;34202;52.536;6.042;2023-05-12T20:32:45;102216.64;;;16.77;68.74
48404;BME280;34202;52.536;6.042;2023-05-12T20:37:47;102220.81;;;16.64;68.83
48404;BME280;34202;52.536;6.042;2023-05-12T20:42:48;102226.73;;;16.53;68.85
48404;BME280;34202;52.536;6.042;2023-05-12T20:47:48;102228.46;;;16.42;68.71
48404;BME280;34202;52.536;6.042;2023-05-12T20:52:49;102229.64;;;16.34;68.57
48404;BME280;34202;52.536;6.042;2023-05-12T20:57:49;102228.91;;;16.26;68.32
48404;BME280;34202;52.536;6.042;2023-05-12T21:02:49;102232.02;;;16.18;68.12
48404;BME280;34202;52.536;6.042;2023-05-12T21:07:51;102234.09;;;16.12;67.81
48404;BME280;34202;52.536;6.042;2023-05-12T21:12:51;102235.11;;;16.05;67.44
48404;BME280;34202;52.536;6.042;2023-05-12T21:17:51;102239.64;;;15.99;67.45
48404;BME280;34202;52.536;6.042;2023-05-12T21:22:53;102243.45;;;15.93;67.71
48404;BME280;34202;52.536;6.042;2023-05-12T21:27:54;102247.90;;;15.78;68.15
48404;BME280;34202;52.536;6.042;2023-05-12T21:32:54;102250.23;;;15.63;68.67
48404;BME280;34202;52.536;6.042;2023-05-12T21:37:55;102252.06;;;15.53;69.04
48404;BME280;34202;52.536;6.042;2023-05-12T21:42:55;102259.38;;;15.47;69.15
48404;BME280;34202;52.536;6.042;2023-05-12T21:47:55;102257.59;;;15.42;69.38
48404;BME280;34202;52.536;6.042;2023-05-12T21:52:55;102259.09;;;15.34;69.57
48404;BME280;34202;52.536;6.042;2023-05-12T21:57:56;102259.72;;;15.27;69.71
48404;BME280;34202;52.536;6.042;2023-05-12T22:02:57;102262.61;;;15.18;69.65
48404;BME280;34202;52.536;6.042;2023-05-12T22:07:58;102266.77;;;15.12;69.53
48404;BME280;34202;52.536;6.042;2023-05-12T22:12:59;102265.61;;;15.03;69.57
48404;BME280;34202;52.536;6.042;2023-05-12T22:18:00;102270.17;;;14.89;69.66
48404;BME280;34202;52.536;6.042;2023-05-12T22:23:00;102276.32;;;14.74;69.86
48404;BME280;34202;52.536;6.042;2023-05-12T22:28:01;102281.23;;;14.62;70.23
48404;BME280;34202;52.536;6.042;2023-05-12T22:33:01;102282.45;;;14.50;70.65
48404;BME280;34202;52.536;6.042;2023-05-12T22:38:01;102286.14;;;14.38;71.03
48404;BME280;34202;52.536;6.042;2023-05-12T22:43:02;102289.67;;;14.27;71.41
48404;BME280;34202;52.536;6.042;2023-05-12T22:48:03;102292.80;;;14.14;71.67
48404;BME280;34202;52.536;6.042;2023-05-12T22:53:03;102292.77;;;14.01;71.79
48404;BME280;34202;52.536;6.042;2023-05-12T22:58:04;102287.84;;;13.88;71.99
48404;BME280;34202;52.536;6.042;2023-05-12T23:03:04;102279.23;;;13.76;72.37
48404;BME280;34202;52.536;6.042;2023-05-12T23:08:06;102281.35;;;13.65;72.38
48404;BME280;34202;52.536;6.042;2023-05-12T23:13:06;102283.39;;;13.52;72.61
48404;BME280;34202;52.536;6.042;2023-05-12T23:18:07;102283.55;;;13.41;72.80
48404;BME280;34202;52.536;6.042;2023-05-12T23:23:07;102281.09;;;13.32;72.79
48404;BME280;34202;52.536;6.042;2023-05-12T23:28:07;102277.55;;;13.21;72.91
48404;BME280;34202;52.536;6.042;2023-05-12T23:33:08;102279.30;;;13.11;73.07
48404;BME280;34202;52.536;6.042;2023-05-12T23:38:08;102285.34;;;12.99;73.17
48404;BME280;34202;52.536;6.042;2023-05-12T23:43:08;102278.45;;;12.87;73.45
48404;BME280;34202;52.536;6.042;2023-05-12T23:48:09;102270.09;;;12.71;73.83
48404;BME280;34202;52.536;6.042;2023-05-12T23:53:09;102273.27;;;12.55;74.20
48404;BME280;34202;52.536;6.042;2023-05-12T23:58:09;102268.74;;;12.48;74.74
